createdAt,value
2022-09-23T00:00:22.999Z,1014.54
2022-09-23T00:01:23.037Z,1014.57
2022-09-23T00:02:23.066Z,1014.52
2022-09-23T00:03:22.965Z,1014.52
2022-09-23T00:04:22.964Z,1014.49
2022-09-23T00:05:22.961Z,1014.48
2022-09-23T00:06:22.931Z,1014.51
2022-09-23T00:07:22.953Z,1014.54
2022-09-23T00:08:22.917Z,1014.56
2022-09-23T00:09:22.897Z,1014.49
2022-09-23T00:10:22.913Z,1014.54
2022-09-23T00:11:22.874Z,1014.59
2022-09-23T00:12:22.874Z,1014.50
2022-09-23T00:13:22.903Z,1014.49
2022-09-23T00:14:22.845Z,1014.52
2022-09-23T00:15:22.920Z,1014.55
2022-09-23T00:16:22.883Z,1014.58
2022-09-23T00:17:22.804Z,1014.51
2022-09-23T00:18:22.817Z,1014.53
2022-09-23T00:19:22.817Z,1014.58
2022-09-23T00:20:22.774Z,1014.56
2022-09-23T00:21:22.765Z,1014.49
2022-09-23T00:22:23.005Z,1014.51
2022-09-23T00:23:22.826Z,1014.51
2022-09-23T00:24:22.767Z,1014.47
2022-09-23T00:25:22.861Z,1014.42
2022-09-23T00:26:22.702Z,1014.45
2022-09-23T00:27:22.696Z,1014.43
2022-09-23T00:28:22.747Z,1014.44
2022-09-23T00:29:22.719Z,1014.44
2022-09-23T00:30:22.790Z,1014.45
2022-09-23T00:31:22.722Z,1014.40
2022-09-23T00:32:22.845Z,1014.43
2022-09-23T00:33:22.767Z,1014.40
2022-09-23T00:34:22.640Z,1014.40
2022-09-23T00:35:22.892Z,1014.39
2022-09-23T00:36:22.652Z,1014.40
2022-09-23T00:37:22.598Z,1014.41
2022-09-23T00:38:22.561Z,1014.37
2022-09-23T00:39:22.561Z,1014.36
2022-09-23T00:40:22.632Z,1014.36
2022-09-23T00:41:22.561Z,1014.40
2022-09-23T00:42:22.529Z,1014.35
2022-09-23T00:43:22.565Z,1014.38
2022-09-23T00:44:22.532Z,1014.36
2022-09-23T00:45:22.500Z,1014.41
2022-09-23T00:46:22.502Z,1014.39
2022-09-23T00:47:22.499Z,1014.33
2022-09-23T00:48:22.509Z,1014.38
2022-09-23T00:49:22.458Z,1014.40
2022-09-23T00:50:22.439Z,1014.33
2022-09-23T00:51:22.439Z,1014.34
2022-09-23T00:52:22.423Z,1014.33
2022-09-23T00:53:22.417Z,1014.29
2022-09-23T00:54:22.446Z,1014.26
2022-09-23T00:55:22.394Z,1014.29
2022-09-23T00:56:22.452Z,1014.26
2022-09-23T00:57:22.525Z,1014.32
2022-09-23T00:58:22.513Z,1014.30
2022-09-23T00:59:22.569Z,1014.25
2022-09-23T01:00:22.515Z,1014.26
2022-09-23T01:01:22.384Z,1014.28
2022-09-23T01:02:22.359Z,1014.24
2022-09-23T01:03:22.300Z,1014.30
2022-09-23T01:04:22.274Z,1014.28
2022-09-23T01:05:22.280Z,1014.28
2022-09-23T01:06:22.296Z,1014.28
2022-09-23T01:07:22.259Z,1014.23
2022-09-23T01:08:22.241Z,1014.28
2022-09-23T01:09:22.234Z,1014.24
2022-09-23T01:10:22.213Z,1014.28
2022-09-23T01:11:22.223Z,1014.22
2022-09-23T01:12:22.219Z,1014.25
2022-09-23T01:13:22.188Z,1014.18
2022-09-23T01:14:22.178Z,1014.20
2022-09-23T01:15:22.198Z,1014.21
2022-09-23T01:16:22.214Z,1014.18
2022-09-23T01:17:22.169Z,1014.12
2022-09-23T01:18:22.129Z,1014.14
2022-09-23T01:19:22.118Z,1014.11
2022-09-23T01:20:22.115Z,1014.18
2022-09-23T01:21:22.141Z,1014.23
2022-09-23T01:22:22.071Z,1014.19
2022-09-23T01:23:22.071Z,1014.13
2022-09-23T01:24:22.059Z,1014.15
2022-09-23T01:25:22.055Z,1014.18
2022-09-23T01:26:22.045Z,1014.15
2022-09-23T01:27:22.061Z,1014.13
2022-09-23T01:28:22.009Z,1014.21
2022-09-23T01:29:22.004Z,1014.12
2022-09-23T01:30:21.982Z,1014.10
2022-09-23T01:31:22.036Z,1014.10
2022-09-23T01:32:21.967Z,1014.07
2022-09-23T01:33:21.981Z,1014.09
2022-09-23T01:34:21.944Z,1014.03
2022-09-23T01:35:21.933Z,1014.07
2022-09-23T01:36:21.943Z,1014.08
2022-09-23T01:37:21.920Z,1014.03
2022-09-23T01:38:21.956Z,1014.03
2022-09-23T01:39:21.891Z,1014.06
2022-09-23T01:40:21.983Z,1013.98
2022-09-23T01:41:21.869Z,1013.93
2022-09-23T01:42:21.846Z,1013.95
2022-09-23T01:43:21.850Z,1014.02
2022-09-23T01:44:21.896Z,1013.93
2022-09-23T01:45:21.829Z,1013.91
2022-09-23T01:46:21.804Z,1013.96
2022-09-23T01:47:21.805Z,1013.93
2022-09-23T01:48:21.852Z,1013.95
2022-09-23T01:49:21.817Z,1013.98
2022-09-23T01:50:21.792Z,1013.98
2022-09-23T01:51:21.771Z,1014.00
2022-09-23T01:52:21.746Z,1013.99
2022-09-23T01:53:21.736Z,1014.03
2022-09-23T01:54:21.746Z,1013.96
2022-09-23T01:55:21.738Z,1013.98
2022-09-23T01:56:21.697Z,1013.99
2022-09-23T01:57:21.687Z,1013.95
2022-09-23T01:58:21.712Z,1013.95
2022-09-23T01:59:21.685Z,1013.90
2022-09-23T02:00:21.680Z,1013.91
2022-09-23T02:01:21.707Z,1013.90
2022-09-23T02:02:21.720Z,1013.91
2022-09-23T02:03:21.637Z,1013.88
2022-09-23T02:04:21.618Z,1013.91
2022-09-23T02:05:21.607Z,1013.86
2022-09-23T02:06:21.641Z,1013.90
2022-09-23T02:07:21.600Z,1013.90
2022-09-23T02:08:21.572Z,1013.87
2022-09-23T02:09:21.550Z,1013.90
2022-09-23T02:10:21.561Z,1013.88
2022-09-23T02:11:21.551Z,1013.91
2022-09-23T02:12:21.541Z,1013.88
2022-09-23T02:13:21.511Z,1013.83
2022-09-23T02:14:21.518Z,1013.81
2022-09-23T02:15:21.495Z,1013.86
2022-09-23T02:16:21.579Z,1013.83
2022-09-23T02:17:21.501Z,1013.78
2022-09-23T02:18:21.454Z,1013.77
2022-09-23T02:19:21.444Z,1013.84
2022-09-23T02:20:21.436Z,1013.78
2022-09-23T02:21:21.423Z,1013.80
2022-09-23T02:22:21.451Z,1013.77
2022-09-23T02:23:21.418Z,1013.79
2022-09-23T02:24:21.400Z,1013.81
2022-09-23T02:25:21.382Z,1013.78
2022-09-23T02:26:21.367Z,1013.76
2022-09-23T02:27:21.354Z,1013.75
2022-09-23T02:28:21.413Z,1013.78
2022-09-23T02:29:21.363Z,1013.73
2022-09-23T02:30:21.322Z,1013.73
2022-09-23T02:31:21.378Z,1013.72
2022-09-23T02:32:21.354Z,1013.70
2022-09-23T02:33:21.286Z,1013.77
2022-09-23T02:34:21.296Z,1013.74
2022-09-23T02:35:21.268Z,1013.72
2022-09-23T02:36:21.247Z,1013.76
2022-09-23T02:37:21.252Z,1013.72
2022-09-23T02:38:21.258Z,1013.75
2022-09-23T02:39:21.255Z,1013.70
2022-09-23T02:40:21.258Z,1013.67
2022-09-23T02:41:21.197Z,1013.70
2022-09-23T02:42:21.198Z,1013.68
2022-09-23T02:43:21.198Z,1013.71
2022-09-23T02:44:21.178Z,1013.69
2022-09-23T02:45:21.190Z,1013.65
2022-09-23T02:46:21.232Z,1013.63
2022-09-23T02:47:21.139Z,1013.58
2022-09-23T02:48:21.144Z,1013.55
2022-09-23T02:49:21.141Z,1013.58
2022-09-23T02:50:21.090Z,1013.58
2022-09-23T02:51:21.099Z,1013.59
2022-09-23T02:52:21.068Z,1013.59
2022-09-23T02:53:21.085Z,1013.54
2022-09-23T02:54:21.101Z,1013.57
2022-09-23T02:55:21.042Z,1013.55
2022-09-23T02:56:21.034Z,1013.55
2022-09-23T02:57:21.025Z,1013.53
2022-09-23T02:58:21.014Z,1013.55
2022-09-23T02:59:21.013Z,1013.54
2022-09-23T03:00:21.049Z,1013.46
2022-09-23T03:01:21.017Z,1013.52
2022-09-23T03:02:21.054Z,1013.49
2022-09-23T03:03:20.977Z,1013.50
2022-09-23T03:04:20.948Z,1013.47
2022-09-23T03:05:20.937Z,1013.57
2022-09-23T03:06:21.035Z,1013.53
2022-09-23T03:07:20.935Z,1013.52
2022-09-23T03:08:20.940Z,1013.47
2022-09-23T03:09:20.895Z,1013.48
2022-09-23T03:10:20.870Z,1013.48
2022-09-23T03:11:20.910Z,1013.51
2022-09-23T03:12:20.884Z,1013.44
2022-09-23T03:13:20.849Z,1013.43
2022-09-23T03:14:20.837Z,1013.43
2022-09-23T03:15:20.816Z,1013.48
2022-09-23T03:16:20.877Z,1013.41
2022-09-23T03:17:20.818Z,1013.44
2022-09-23T03:18:20.794Z,1013.42
2022-09-23T03:19:20.819Z,1013.41
2022-09-23T03:20:20.793Z,1013.40
2022-09-23T03:21:20.760Z,1013.42
2022-09-23T03:22:20.742Z,1013.43
2022-09-23T03:23:20.728Z,1013.37
2022-09-23T03:24:20.757Z,1013.46
2022-09-23T03:25:20.702Z,1013.38
2022-09-23T03:26:20.699Z,1013.39
2022-09-23T03:27:20.709Z,1013.41
2022-09-23T03:28:20.691Z,1013.39
2022-09-23T03:29:20.671Z,1013.36
2022-09-23T03:30:20.662Z,1013.39
2022-09-23T03:31:20.700Z,1013.38
2022-09-23T03:32:20.643Z,1013.34
2022-09-23T03:33:20.650Z,1013.40
2022-09-23T03:34:20.611Z,1013.39
2022-09-23T03:35:20.601Z,1013.37
2022-09-23T03:36:20.592Z,1013.37
2022-09-23T03:37:20.576Z,1013.37
2022-09-23T03:38:20.562Z,1013.39
2022-09-23T03:39:20.582Z,1013.42
2022-09-23T03:40:20.628Z,1013.34
2022-09-23T03:41:20.546Z,1013.36
2022-09-23T03:42:20.523Z,1013.36
2022-09-23T03:43:20.520Z,1013.37
2022-09-23T03:44:20.504Z,1013.37
2022-09-23T03:45:20.658Z,1013.41
2022-09-23T03:46:20.514Z,1013.42
2022-09-23T03:47:20.465Z,1013.38
2022-09-23T03:48:20.456Z,1013.40
2022-09-23T03:49:20.454Z,1013.38
2022-09-23T03:50:20.465Z,1013.33
2022-09-23T03:51:20.425Z,1013.36
2022-09-23T03:52:20.473Z,1013.36
2022-09-23T03:53:20.394Z,1013.36
2022-09-23T03:54:20.388Z,1013.37
2022-09-23T03:55:20.376Z,1013.41
2022-09-23T03:56:20.385Z,1013.31
2022-09-23T03:57:20.361Z,1013.29
2022-09-23T03:58:20.376Z,1013.31
2022-09-23T03:59:20.400Z,1013.32
2022-09-23T04:00:20.342Z,1013.30
2022-09-23T04:01:20.345Z,1013.32
2022-09-23T04:02:21.914Z,1013.27
2022-09-23T04:03:21.753Z,1013.24
2022-09-23T04:04:20.313Z,1013.18
2022-09-23T04:05:20.454Z,1013.16
2022-09-23T04:06:20.268Z,1013.17
2022-09-23T04:07:20.316Z,1013.18
2022-09-23T04:08:20.244Z,1013.10
2022-09-23T04:09:20.246Z,1013.09
2022-09-23T04:10:20.275Z,1013.08
2022-09-23T04:11:20.199Z,1013.06
2022-09-23T04:12:20.645Z,1013.11
2022-09-23T04:13:20.171Z,1013.11
2022-09-23T04:14:20.199Z,1013.10
2022-09-23T04:15:20.181Z,1013.05
2022-09-23T04:16:20.189Z,1013.05
2022-09-23T04:17:20.168Z,1013.09
2022-09-23T04:18:20.282Z,1013.00
2022-09-23T04:19:20.120Z,1012.97
2022-09-23T04:20:20.135Z,1012.98
2022-09-23T04:21:20.094Z,1012.99
2022-09-23T04:22:20.091Z,1013.03
2022-09-23T04:23:21.545Z,1013.07
2022-09-23T04:24:20.068Z,1013.06
2022-09-23T04:25:20.644Z,1013.04
2022-09-23T04:26:20.050Z,1013.02
2022-09-23T04:27:20.029Z,1013.03
2022-09-23T04:28:21.028Z,1013.04
2022-09-23T04:29:20.013Z,1012.97
2022-09-23T04:30:20.810Z,1012.94
2022-09-23T04:31:20.595Z,1012.93
2022-09-23T04:32:19.976Z,1012.93
2022-09-23T04:33:19.984Z,1012.92
2022-09-23T04:34:19.958Z,1012.89
2022-09-23T04:35:20.418Z,1012.90
2022-09-23T04:36:19.998Z,1012.92
2022-09-23T04:37:20.724Z,1012.88
2022-09-23T04:38:19.921Z,1012.82
2022-09-23T04:39:19.905Z,1012.87
2022-09-23T04:40:19.910Z,1012.82
2022-09-23T04:41:20.729Z,1012.84
2022-09-23T04:42:19.931Z,1012.83
2022-09-23T04:43:19.858Z,1012.81
2022-09-23T04:44:19.846Z,1012.79
2022-09-23T04:45:19.826Z,1012.78
2022-09-23T04:46:19.928Z,1012.78
2022-09-23T04:47:19.850Z,1012.79
2022-09-23T04:48:21.250Z,1012.80
2022-09-23T04:49:19.779Z,1012.75
2022-09-23T04:50:19.816Z,1012.79
2022-09-23T04:51:20.206Z,1012.79
2022-09-23T04:52:19.770Z,1012.74
2022-09-23T04:53:19.840Z,1012.76
2022-09-23T04:54:20.212Z,1012.76
2022-09-23T04:55:19.973Z,1012.79
2022-09-23T04:56:19.756Z,1012.75
2022-09-23T04:57:19.742Z,1012.74
2022-09-23T04:58:21.162Z,1012.75
2022-09-23T04:59:21.131Z,1012.80
2022-09-23T05:00:21.149Z,1012.80
2022-09-23T05:01:19.855Z,1012.81
2022-09-23T05:02:19.957Z,1012.78
2022-09-23T05:03:19.820Z,1012.79
2022-09-23T05:04:19.891Z,1012.82
2022-09-23T05:05:21.104Z,1012.83
2022-09-23T05:06:19.629Z,1012.82
2022-09-23T05:07:19.604Z,1012.84
2022-09-23T05:08:19.592Z,1012.81
2022-09-23T05:09:19.836Z,1012.82
2022-09-23T05:10:19.552Z,1012.83
2022-09-23T05:11:19.568Z,1012.88
2022-09-23T05:12:19.574Z,1012.88
2022-09-23T05:13:20.332Z,1012.83
2022-09-23T05:14:19.564Z,1012.88
2022-09-23T05:15:19.514Z,1012.89
2022-09-23T05:16:19.559Z,1012.86
2022-09-23T05:17:19.489Z,1012.92
2022-09-23T05:18:20.899Z,1012.90
2022-09-23T05:19:19.511Z,1012.86
2022-09-23T05:20:19.454Z,1012.89
2022-09-23T05:21:19.948Z,1012.91
2022-09-23T05:22:19.418Z,1012.88
2022-09-23T05:23:19.428Z,1012.90
2022-09-23T05:24:19.413Z,1012.90
2022-09-23T05:25:19.428Z,1012.89
2022-09-23T05:26:19.387Z,1012.87
2022-09-23T05:27:19.963Z,1012.88
2022-09-23T05:28:19.439Z,1012.85
2022-09-23T05:29:19.586Z,1012.90
2022-09-23T05:30:19.566Z,1012.88
2022-09-23T05:31:20.651Z,1012.87
2022-09-23T05:32:19.317Z,1012.87
2022-09-23T05:33:19.310Z,1012.91
2022-09-23T05:34:19.291Z,1012.87
2022-09-23T05:35:19.291Z,1012.86
2022-09-23T05:36:19.409Z,1012.84
2022-09-23T05:37:19.260Z,1012.88
2022-09-23T05:38:19.266Z,1012.88
2022-09-23T05:39:19.232Z,1012.92
2022-09-23T05:40:19.501Z,1012.86
2022-09-23T05:41:19.255Z,1012.86
2022-09-23T05:42:19.200Z,1012.90
2022-09-23T05:43:19.335Z,1012.86
2022-09-23T05:44:19.181Z,1012.90
2022-09-23T05:45:19.162Z,1012.88
2022-09-23T05:46:19.215Z,1012.86
2022-09-23T05:47:19.322Z,1012.84
2022-09-23T05:48:19.275Z,1012.85
2022-09-23T05:49:19.135Z,1012.86
2022-09-23T05:50:19.126Z,1012.84
2022-09-23T05:51:19.107Z,1012.84
2022-09-23T05:52:19.117Z,1012.87
2022-09-23T05:53:19.085Z,1012.85
2022-09-23T05:54:19.497Z,1012.84
2022-09-23T05:55:20.013Z,1012.86
2022-09-23T05:56:19.061Z,1012.85
2022-09-23T05:57:19.087Z,1012.91
2022-09-23T05:58:19.041Z,1012.87
2022-09-23T05:59:19.024Z,1012.96
2022-09-23T06:00:19.007Z,1012.91
2022-09-23T06:01:20.018Z,1012.95
2022-09-23T06:02:19.045Z,1012.94
2022-09-23T06:03:19.367Z,1012.92
2022-09-23T06:04:20.428Z,1012.97
2022-09-23T06:05:19.059Z,1012.91
2022-09-23T06:06:20.405Z,1012.91
2022-09-23T06:07:18.981Z,1012.97
2022-09-23T06:08:18.959Z,1012.95
2022-09-23T06:09:18.949Z,1012.92
2022-09-23T06:10:19.175Z,1012.97
2022-09-23T06:11:18.936Z,1012.91
2022-09-23T06:12:18.990Z,1012.91
2022-09-23T06:13:18.892Z,1012.92
2022-09-23T06:14:18.924Z,1012.91
2022-09-23T06:15:18.907Z,1012.91
2022-09-23T06:16:20.346Z,1012.94
2022-09-23T06:17:20.287Z,1012.92
2022-09-23T06:18:18.819Z,1012.94
2022-09-23T06:19:18.879Z,1012.95
2022-09-23T06:20:18.788Z,1012.95
2022-09-23T06:21:18.776Z,1012.93
2022-09-23T06:22:18.804Z,1012.97
2022-09-23T06:23:20.261Z,1012.95
2022-09-23T06:24:23.042Z,1012.94
2022-09-23T06:25:19.879Z,1012.92
2022-09-23T06:26:18.742Z,1012.94
2022-09-23T06:27:19.591Z,1012.92
2022-09-23T06:28:18.895Z,1012.91
2022-09-23T06:29:18.749Z,1012.91
2022-09-23T06:30:18.705Z,1012.90
2022-09-23T06:31:18.924Z,1012.87
2022-09-23T06:32:18.684Z,1012.86
2022-09-23T06:33:28.842Z,1012.88
2022-09-23T06:34:20.012Z,1012.90
2022-09-23T06:35:27.009Z,1012.90
2022-09-23T06:36:36.939Z,1012.86
2022-09-23T06:37:20.930Z,1012.90
2022-09-23T06:38:18.775Z,1012.80
2022-09-23T06:39:18.634Z,1012.88
2022-09-23T06:40:18.950Z,1012.85
2022-09-23T06:41:18.881Z,1012.88
2022-09-23T06:42:18.849Z,1012.88
2022-09-23T06:43:18.554Z,1012.87
2022-09-23T06:44:18.794Z,1012.92
2022-09-23T06:45:18.522Z,1012.97
2022-09-23T06:46:18.757Z,1012.93
2022-09-23T06:47:18.475Z,1013.00
2022-09-23T06:48:18.755Z,1012.96
2022-09-23T06:49:18.827Z,1012.95
2022-09-23T06:50:18.448Z,1012.96
2022-09-23T06:51:18.445Z,1013.00
2022-09-23T06:52:18.430Z,1012.96
2022-09-23T06:53:18.416Z,1012.94
2022-09-23T06:54:18.403Z,1012.95
2022-09-23T06:55:18.937Z,1012.94
2022-09-23T06:56:19.920Z,1012.96
2022-09-23T06:57:18.368Z,1012.97
2022-09-23T06:58:19.333Z,1012.93
2022-09-23T06:59:18.348Z,1012.94
2022-09-23T07:00:18.369Z,1012.99
2022-09-23T07:01:18.372Z,1012.96
2022-09-23T07:02:18.460Z,1012.93
2022-09-23T07:03:18.331Z,1013.01
2022-09-23T07:04:18.523Z,1012.92
2022-09-23T07:05:18.485Z,1012.86
2022-09-23T07:06:18.322Z,1012.85
2022-09-23T07:07:19.768Z,1012.92
2022-09-23T07:08:18.313Z,1012.94
2022-09-23T07:09:19.707Z,1012.91
2022-09-23T07:10:18.247Z,1012.91
2022-09-23T07:11:18.447Z,1012.93
2022-09-23T07:12:19.206Z,1012.93
2022-09-23T07:13:18.191Z,1012.92
2022-09-23T07:14:18.242Z,1012.94
2022-09-23T07:15:18.195Z,1012.92
2022-09-23T07:16:18.274Z,1012.97
2022-09-23T07:17:19.117Z,1012.84
2022-09-23T07:18:18.151Z,1012.96
2022-09-23T07:19:18.132Z,1012.92
2022-09-23T07:20:18.131Z,1012.85
2022-09-23T07:21:18.126Z,1012.93
2022-09-23T07:22:18.167Z,1012.89
2022-09-23T07:23:18.131Z,1012.94
2022-09-23T07:24:18.108Z,1012.89
2022-09-23T07:25:18.273Z,1012.92
2022-09-23T07:26:18.050Z,1012.95
2022-09-23T07:27:18.054Z,1012.93
2022-09-23T07:28:18.083Z,1012.93
2022-09-23T07:29:18.015Z,1012.95
2022-09-23T07:30:25.152Z,1012.93
2022-09-23T07:31:34.151Z,1012.94
2022-09-23T07:32:20.486Z,1012.95
2022-09-23T07:33:30.754Z,1012.98
2022-09-23T07:34:19.411Z,1012.95
2022-09-23T07:35:17.957Z,1012.99
2022-09-23T07:36:17.977Z,1012.98
2022-09-23T07:37:17.952Z,1013.01
2022-09-23T07:38:17.917Z,1012.95
2022-09-23T07:39:17.909Z,1012.98
2022-09-23T07:40:17.977Z,1013.03
2022-09-23T07:41:17.891Z,1012.96
2022-09-23T07:42:17.890Z,1013.03
2022-09-23T07:43:17.870Z,1012.95
2022-09-23T07:44:17.851Z,1012.98
2022-09-23T07:45:17.851Z,1013.02
2022-09-23T07:46:17.883Z,1013.00
2022-09-23T07:47:17.864Z,1012.95
2022-09-23T07:48:17.807Z,1012.99
2022-09-23T07:49:17.791Z,1013.03
2022-09-23T07:50:17.820Z,1013.02
2022-09-23T07:51:17.783Z,1012.97
2022-09-23T07:52:17.751Z,1013.01
2022-09-23T07:53:17.792Z,1013.02
2022-09-23T07:54:17.774Z,1013.05
2022-09-23T07:55:20.994Z,1013.02
2022-09-23T07:56:17.718Z,1013.05
2022-09-23T07:57:17.717Z,1013.02
2022-09-23T07:58:17.754Z,1013.03
2022-09-23T07:59:17.713Z,1013.01
2022-09-23T08:00:17.705Z,1012.99
2022-09-23T08:01:17.732Z,1013.05
2022-09-23T08:02:17.695Z,1013.04
2022-09-23T08:03:17.685Z,1013.07
2022-09-23T08:04:17.636Z,1013.02
2022-09-23T08:05:17.644Z,1013.00
2022-09-23T08:06:17.594Z,1013.03
2022-09-23T08:07:17.590Z,1013.04
2022-09-23T08:08:17.584Z,1013.06
2022-09-23T08:09:17.571Z,1013.02
2022-09-23T08:10:17.593Z,1013.01
2022-09-23T08:11:17.555Z,1013.07
2022-09-23T08:12:17.526Z,1013.07
2022-09-23T08:13:17.836Z,1013.07
2022-09-23T08:14:17.499Z,1013.03
2022-09-23T08:15:17.528Z,1013.06
2022-09-23T08:16:17.568Z,1013.07
2022-09-23T08:17:17.503Z,1013.04
2022-09-23T08:18:17.468Z,1013.08
2022-09-23T08:19:17.461Z,1013.05
2022-09-23T08:20:17.476Z,1013.05
2022-09-23T08:21:17.430Z,1013.07
2022-09-23T08:22:17.460Z,1013.08
2022-09-23T08:23:17.410Z,1013.09
2022-09-23T08:24:17.390Z,1013.10
2022-09-23T08:25:20.336Z,1013.02
2022-09-23T08:26:21.603Z,1013.00
2022-09-23T08:27:18.405Z,1013.01
2022-09-23T08:28:17.362Z,1013.02
2022-09-23T08:29:17.359Z,1012.95
2022-09-23T08:30:17.332Z,1012.94
2022-09-23T08:31:17.513Z,1012.93
2022-09-23T08:32:17.324Z,1012.96
2022-09-23T08:33:22.500Z,1012.98
2022-09-23T08:34:18.286Z,1012.96
2022-09-23T08:35:17.294Z,1012.97
2022-09-23T08:36:17.264Z,1012.90
2022-09-23T08:37:17.292Z,1012.93
2022-09-23T08:38:17.243Z,1012.92
2022-09-23T08:39:17.246Z,1012.94
2022-09-23T08:40:17.261Z,1012.85
2022-09-23T08:41:17.257Z,1012.94
2022-09-23T08:42:17.206Z,1012.93
2022-09-23T08:43:17.186Z,1012.87
2022-09-23T08:44:17.207Z,1012.94
2022-09-23T08:45:17.166Z,1012.85
2022-09-23T08:46:17.222Z,1012.88
2022-09-23T08:47:17.200Z,1012.92
2022-09-23T08:48:17.426Z,1012.89
2022-09-23T08:49:17.142Z,1012.92
2022-09-23T08:50:17.314Z,1012.85
2022-09-23T08:51:17.112Z,1012.84
2022-09-23T08:52:17.390Z,1012.87
2022-09-23T08:53:17.099Z,1012.92
2022-09-23T08:54:17.087Z,1012.92
2022-09-23T08:55:17.081Z,1012.91
2022-09-23T08:56:17.239Z,1012.89
2022-09-23T08:57:17.840Z,1012.91
2022-09-23T08:58:25.599Z,1012.95
2022-09-23T08:59:18.050Z,1012.95
2022-09-23T09:00:17.023Z,1012.99
2022-09-23T09:01:17.052Z,1013.00
2022-09-23T09:02:17.031Z,1012.99
2022-09-23T09:03:16.984Z,1013.00
2022-09-23T09:04:16.980Z,1012.92
2022-09-23T09:05:16.960Z,1012.93
2022-09-23T09:06:16.943Z,1012.91
2022-09-23T09:07:35.857Z,1012.94
2022-09-23T09:08:17.957Z,1012.96
2022-09-23T09:09:16.961Z,1012.90
2022-09-23T09:10:16.912Z,1012.91
2022-09-23T09:11:16.969Z,1012.90
2022-09-23T09:12:17.114Z,1012.89
2022-09-23T09:13:16.920Z,1012.90
2022-09-23T09:14:16.851Z,1012.89
2022-09-23T09:15:16.944Z,1012.84
2022-09-23T09:16:18.791Z,1012.83
2022-09-23T09:17:17.816Z,1012.84
2022-09-23T09:18:17.022Z,1012.82
2022-09-23T09:19:16.789Z,1012.81
2022-09-23T09:20:17.054Z,1012.78
2022-09-23T09:21:16.766Z,1012.76
2022-09-23T09:22:16.760Z,1012.80
2022-09-23T09:23:16.841Z,1012.77
2022-09-23T09:24:17.528Z,1012.75
2022-09-23T09:25:16.797Z,1012.75
2022-09-23T09:26:16.731Z,1012.73
2022-09-23T09:27:16.937Z,1012.71
2022-09-23T09:28:16.713Z,1012.72
2022-09-23T09:29:34.371Z,1012.73
2022-09-23T09:30:17.804Z,1012.75
2022-09-23T09:31:16.858Z,1012.75
2022-09-23T09:32:17.139Z,1012.76
2022-09-23T09:33:16.740Z,1012.71
2022-09-23T09:34:16.989Z,1012.74
2022-09-23T09:35:16.699Z,1012.75
2022-09-23T09:36:17.099Z,1012.75
2022-09-23T09:37:16.612Z,1012.78
2022-09-23T09:38:16.691Z,1012.79
2022-09-23T09:39:16.592Z,1012.69
2022-09-23T09:40:16.634Z,1012.75
2022-09-23T09:41:16.568Z,1012.69
2022-09-23T09:42:16.537Z,1012.67
2022-09-23T09:43:16.610Z,1012.68
2022-09-23T09:44:16.506Z,1012.65
2022-09-23T09:45:16.517Z,1012.66
2022-09-23T09:46:16.525Z,1012.64
2022-09-23T09:47:16.495Z,1012.67
2022-09-23T09:48:16.480Z,1012.67
2022-09-23T09:49:17.356Z,1012.62
2022-09-23T09:50:16.441Z,1012.64
2022-09-23T09:51:16.460Z,1012.66
2022-09-23T09:52:16.470Z,1012.64
2022-09-23T09:53:16.365Z,1012.60
2022-09-23T09:54:16.345Z,1012.64
2022-09-23T09:55:16.343Z,1012.64
2022-09-23T09:56:16.328Z,1012.66
2022-09-23T09:57:16.438Z,1012.60
2022-09-23T09:58:16.422Z,1012.63
2022-09-23T09:59:16.291Z,1012.56
2022-09-23T10:00:16.277Z,1012.64
2022-09-23T10:01:16.298Z,1012.58
2022-09-23T10:02:16.909Z,1012.63
2022-09-23T10:03:16.257Z,1012.56
2022-09-23T10:04:16.321Z,1012.63
2022-09-23T10:05:16.497Z,1012.57
2022-09-23T10:06:16.664Z,1012.53
2022-09-23T10:07:16.212Z,1012.60
2022-09-23T10:08:16.793Z,1012.56
2022-09-23T10:09:16.920Z,1012.55
2022-09-23T10:10:31.955Z,1012.55
2022-09-23T10:11:17.410Z,1012.52
2022-09-23T10:12:16.915Z,1012.50
2022-09-23T10:13:16.166Z,1012.56
2022-09-23T10:14:16.163Z,1012.49
2022-09-23T10:15:16.264Z,1012.51
2022-09-23T10:16:16.207Z,1012.53
2022-09-23T10:17:16.100Z,1012.50
2022-09-23T10:18:16.092Z,1012.49
2022-09-23T10:19:16.097Z,1012.52
2022-09-23T10:20:16.226Z,1012.55
2022-09-23T10:21:16.076Z,1012.48
2022-09-23T10:22:16.036Z,1012.47
2022-09-23T10:23:16.053Z,1012.49
2022-09-23T10:24:16.016Z,1012.55
2022-09-23T10:25:16.013Z,1012.53
2022-09-23T10:26:16.028Z,1012.48
2022-09-23T10:27:16.042Z,1012.50
2022-09-23T10:28:15.968Z,1012.53
2022-09-23T10:29:15.950Z,1012.55
2022-09-23T10:30:16.235Z,1012.55
2022-09-23T10:31:16.015Z,1012.54
2022-09-23T10:32:15.930Z,1012.55
2022-09-23T10:33:15.983Z,1012.52
2022-09-23T10:34:15.912Z,1012.52
2022-09-23T10:35:15.898Z,1012.56
2022-09-23T10:36:16.202Z,1012.52
2022-09-23T10:37:15.930Z,1012.56
2022-09-23T10:38:15.877Z,1012.57
2022-09-23T10:39:15.915Z,1012.55
2022-09-23T10:40:15.950Z,1012.56
2022-09-23T10:41:16.145Z,1012.50
2022-09-23T10:42:15.867Z,1012.52
2022-09-23T10:43:16.081Z,1012.53
2022-09-23T10:44:16.249Z,1012.49
2022-09-23T10:45:16.760Z,1012.45
2022-09-23T10:46:15.845Z,1012.45
2022-09-23T10:47:15.771Z,1012.45
2022-09-23T10:48:15.823Z,1012.41
2022-09-23T10:49:15.904Z,1012.45
2022-09-23T10:50:15.798Z,1012.40
2022-09-23T10:51:15.726Z,1012.34
2022-09-23T10:52:15.885Z,1012.33
2022-09-23T10:53:15.703Z,1012.34
2022-09-23T10:54:15.715Z,1012.30
2022-09-23T10:55:16.010Z,1012.28
2022-09-23T10:56:15.678Z,1012.33
2022-09-23T10:57:16.119Z,1012.35
2022-09-23T10:58:15.651Z,1012.31
2022-09-23T10:59:15.677Z,1012.34
2022-09-23T11:00:15.945Z,1012.34
2022-09-23T11:01:15.686Z,1012.33
2022-09-23T11:02:15.634Z,1012.32
2022-09-23T11:03:15.613Z,1012.22
2022-09-23T11:04:16.126Z,1012.20
2022-09-23T11:05:15.594Z,1012.18
2022-09-23T11:06:15.555Z,1012.23
2022-09-23T11:07:16.305Z,1012.19
2022-09-23T11:08:17.000Z,1012.18
2022-09-23T11:09:16.068Z,1012.20
2022-09-23T11:10:28.884Z,1012.19
2022-09-23T11:11:16.817Z,1012.15
2022-09-23T11:12:15.580Z,1012.15
2022-09-23T11:13:15.937Z,1012.20
2022-09-23T11:14:15.473Z,1012.20
2022-09-23T11:15:15.552Z,1012.22
2022-09-23T11:16:15.502Z,1012.15
2022-09-23T11:17:15.803Z,1012.15
2022-09-23T11:18:15.530Z,1012.12
2022-09-23T11:19:15.639Z,1012.11
2022-09-23T11:20:20.695Z,1012.13
2022-09-23T11:21:15.395Z,1012.10
2022-09-23T11:22:15.406Z,1012.13
2022-09-23T11:23:15.378Z,1012.13
2022-09-23T11:24:15.571Z,1012.06
2022-09-23T11:25:15.421Z,1012.04
2022-09-23T11:26:15.351Z,1012.06
2022-09-23T11:27:15.402Z,1012.03
2022-09-23T11:28:15.532Z,1011.99
2022-09-23T11:29:15.324Z,1012.04
2022-09-23T11:30:15.305Z,1011.94
2022-09-23T11:31:15.617Z,1012.01
2022-09-23T11:32:15.286Z,1011.99
2022-09-23T11:33:15.387Z,1011.92
2022-09-23T11:34:15.879Z,1011.92
2022-09-23T11:35:15.255Z,1011.94
2022-09-23T11:36:15.404Z,1011.92
2022-09-23T11:37:15.230Z,1012.00
2022-09-23T11:38:15.743Z,1011.97
2022-09-23T11:39:15.300Z,1012.01
2022-09-23T11:40:15.588Z,1011.96
2022-09-23T11:41:15.336Z,1011.91
2022-09-23T11:42:15.711Z,1011.95
2022-09-23T11:43:15.622Z,1011.94
2022-09-23T11:44:15.651Z,1011.91
2022-09-23T11:45:15.973Z,1011.93
2022-09-23T11:46:15.292Z,1012.00
2022-09-23T11:47:15.164Z,1011.93
2022-09-23T11:48:16.105Z,1011.95
2022-09-23T11:49:15.795Z,1011.94
2022-09-23T11:50:15.142Z,1011.87
2022-09-23T11:51:15.153Z,1011.91
2022-09-23T11:52:15.096Z,1011.92
2022-09-23T11:53:15.053Z,1011.92
2022-09-23T11:54:18.480Z,1011.94
2022-09-23T11:55:22.344Z,1011.90
2022-09-23T11:56:27.198Z,1011.88
2022-09-23T11:57:16.015Z,1011.89
2022-09-23T11:58:24.248Z,1011.87
2022-09-23T11:59:17.110Z,1011.89
2022-09-23T12:00:15.075Z,1011.84
2022-09-23T12:01:15.006Z,1011.84
2022-09-23T12:02:19.915Z,1011.85
2022-09-23T12:03:16.063Z,1011.82
2022-09-23T12:04:20.464Z,1011.80
2022-09-23T12:05:16.391Z,1011.82